createdAt,value
2022-08-05T00:04:14.223Z,4143.4
2022-08-05T00:09:49.125Z,4142.9
2022-08-05T00:16:01.410Z,4144.3
2022-08-05T00:21:37.797Z,4144
2022-08-05T00:27:18.004Z,4143.8
2022-08-05T00:32:57.949Z,4142.9
2022-08-05T00:38:35.131Z,4142.1
2022-08-05T00:44:10.551Z,4141.1
2022-08-05T00:49:52.822Z,4142.3
2022-08-05T00:55:44.705Z,4140.6
2022-08-05T01:02:01.131Z,4143.6
2022-08-05T01:08:47.576Z,4142.4
2022-08-05T01:14:29.690Z,4139.9
2022-08-05T01:20:28.181Z,4141.6
2022-08-05T01:26:03.102Z,4139.1
2022-08-05T01:31:48.444Z,4139.6
2022-08-05T01:37:29.020Z,4138.8
2022-08-05T01:43:04.683Z,4139.3
2022-08-05T01:48:50.033Z,4137.2
2022-08-05T01:54:28.525Z,4138.3
2022-08-05T02:00:03.282Z,4136.1
2022-08-05T02:05:43.453Z,4137.4
2022-08-05T02:11:34.847Z,4137.4
2022-08-05T02:18:42.655Z,4132.1
2022-08-05T02:24:23.992Z,4135.4
2022-08-05T02:30:01.789Z,4132.9
2022-08-05T02:36:05.404Z,4133.9
2022-08-05T02:42:02.491Z,4134.7
2022-08-05T02:48:16.754Z,4133.7
2022-08-05T02:54:04.853Z,4133.9
2022-08-05T02:59:54.454Z,4134.4
2022-08-05T03:07:00.857Z,4133.6
2022-08-05T03:12:37.227Z,4132.4
2022-08-05T03:18:49.295Z,4130.5
2022-08-05T03:24:35.522Z,4131.1
2022-08-05T03:30:11.420Z,4133.4
2022-08-05T03:35:46.135Z,4130.2
2022-08-05T03:41:46.837Z,4131.4
2022-08-05T03:47:35.308Z,4132.6
2022-08-05T03:56:36.301Z,4128.9
2022-08-05T04:03:00.080Z,4128.7
2022-08-05T04:08:39.468Z,4129
2022-08-05T04:14:31.071Z,4126
2022-08-05T04:20:20.194Z,4126.4
2022-08-05T04:26:04.746Z,4127.7
2022-08-05T04:31:40.435Z,4129.4
2022-08-05T04:37:17.972Z,4127.5
2022-08-05T04:42:54.217Z,4127.5
2022-08-05T04:48:29.598Z,4126
2022-08-05T04:54:06.557Z,4126.4
2022-08-05T04:59:41.777Z,4124.2
2022-08-05T05:05:32.372Z,4127.4
2022-08-05T05:11:08.981Z,4125.4
2022-08-05T05:17:10.663Z,4123
2022-08-05T05:22:45.208Z,4124.5
2022-08-05T05:28:25.208Z,4124.4
2022-08-05T05:34:03.678Z,4123.5
2022-08-05T05:39:46.032Z,4123.5
2022-08-05T05:45:21.981Z,4123.5
2022-08-05T05:50:57.311Z,4124.9
2022-08-05T05:56:35.968Z,4122
2022-08-05T06:02:12.091Z,4121.8
2022-08-05T06:08:04.551Z,4119.8
2022-08-05T06:13:56.480Z,4120.8
2022-08-05T06:20:00.752Z,4117.8
2022-08-05T06:26:36.024Z,4119
2022-08-05T06:32:30.012Z,4119.7
2022-08-05T06:38:13.138Z,4117.3
2022-08-05T06:44:01.538Z,4118.3
2022-08-05T06:50:06.162Z,4120
2022-08-05T06:55:46.853Z,4117.7
2022-08-05T07:01:34.133Z,4118.7
2022-08-05T07:07:09.558Z,4120
2022-08-05T07:12:50.179Z,4118.3
2022-08-05T07:18:34.173Z,4118.7
2022-08-05T07:24:12.630Z,4116.6
2022-08-05T07:30:40.231Z,4117.5
2022-08-05T07:36:22.850Z,4116.5
2022-08-05T07:42:36.995Z,4116
2022-08-05T07:49:07.727Z,4114.6
2022-08-05T07:54:53.664Z,4113.6
2022-08-05T08:00:31.412Z,4112.8
2022-08-05T08:06:11.839Z,4112.6
2022-08-05T08:12:50.043Z,4113.1
2022-08-05T08:18:29.549Z,4112.1
2022-08-05T08:24:14.868Z,4112.6
2022-08-05T08:30:50.945Z,4112.6
2022-08-05T08:37:05.914Z,4113
2022-08-05T08:45:30.809Z,4112.8
2022-08-05T08:52:15.719Z,4111.3
2022-08-05T08:57:59.394Z,4109.8
2022-08-05T09:03:53.000Z,4108.9
2022-08-05T09:09:39.778Z,4110.8
2022-08-05T09:15:16.208Z,4109.9
2022-08-05T09:20:52.027Z,4111
2022-08-05T09:26:33.289Z,4109.3
2022-08-05T09:32:58.140Z,4108.8
2022-08-05T09:38:34.256Z,4109.1
2022-08-05T09:44:12.673Z,4107.6
2022-08-05T09:50:04.527Z,4106.1
2022-08-05T09:56:15.917Z,4109.9
2022-08-05T10:02:02.647Z,4106.6
2022-08-05T10:08:43.077Z,4108.1
2022-08-05T10:14:33.729Z,4108.8
2022-08-05T10:20:20.563Z,4105.4
2022-08-05T10:25:58.328Z,4106.9
2022-08-05T10:33:14.830Z,4105.3
2022-08-05T10:38:51.641Z,4103.9
2022-08-05T10:44:29.548Z,4104.9
2022-08-05T10:50:38.444Z,4103.9
2022-08-05T10:56:27.333Z,4102.7
2022-08-05T11:02:06.975Z,4104.3
2022-08-05T11:08:41.262Z,4103.9
2022-08-05T11:14:17.712Z,4102.9
2022-08-05T11:20:28.073Z,4103.2
2022-08-05T11:26:34.149Z,4102.6
2022-08-05T11:32:13.459Z,4100.1
2022-08-05T11:38:54.046Z,4102.1
2022-08-05T11:44:55.329Z,4101.1
2022-08-05T11:50:41.524Z,4100.6
2022-08-05T11:56:18.421Z,4100.7
2022-08-05T12:02:45.061Z,4101.2
2022-08-05T12:08:26.501Z,4100.2
2022-08-05T12:14:05.377Z,4100.4
2022-08-05T12:20:35.888Z,4099.7
2022-08-05T12:26:16.107Z,4098.6
2022-08-05T12:31:56.679Z,4129
2022-08-05T12:37:34.492Z,4158.2
2022-08-05T12:43:24.315Z,4194.9
2022-08-05T12:49:19.261Z,4156.5
2022-08-05T12:55:03.118Z,4144.8
2022-08-05T13:02:11.531Z,4196.5
2022-08-05T13:08:09.718Z,4207.4
2022-08-05T13:14:15.229Z,4201.2
2022-08-05T13:19:54.695Z,4195.4
2022-08-05T13:26:02.148Z,4212
2022-08-05T13:32:07.717Z,4215.1
2022-08-05T13:38:06.818Z,4203.2
2022-08-05T13:43:56.312Z,4208.9
2022-08-05T13:49:36.280Z,4207.1
2022-08-05T13:55:49.386Z,4205.3
2022-08-05T14:02:01.333Z,4205.9
2022-08-05T14:08:35.753Z,4202.4
2022-08-05T14:14:34.273Z,4174.3
2022-08-05T14:20:28.004Z,4197.7
2022-08-05T14:26:38.888Z,4209.3
2022-08-05T14:32:31.336Z,4190.3
2022-08-05T14:38:36.736Z,4190.2
2022-08-05T14:44:23.783Z,4196.2
2022-08-05T14:50:21.164Z,4187.5
2022-08-05T14:55:56.403Z,4195.4
2022-08-05T15:01:54.611Z,4203.7
2022-08-05T15:09:04.917Z,4210.8
2022-08-05T15:14:56.554Z,4190.3
2022-08-05T15:20:32.303Z,4187.5
2022-08-05T15:26:10.226Z,4195.2
2022-08-05T15:31:53.858Z,4189.8
2022-08-05T15:38:44.608Z,4184.8
2022-08-05T15:44:22.556Z,4200.4
2022-08-05T15:50:01.438Z,4217.3
2022-08-05T15:56:19.195Z,4206.8
2022-08-05T16:02:02.418Z,4200.1
2022-08-05T16:07:37.604Z,4207.4
2022-08-05T16:13:24.337Z,4216.3
2022-08-05T16:20:13.841Z,4200.6
2022-08-05T16:25:56.230Z,4209.9
2022-08-05T16:31:58.770Z,4202.2
2022-08-05T16:38:29.061Z,4205.8
2022-08-05T16:44:05.186Z,4198.9
2022-08-05T16:49:42.279Z,4198.7
2022-08-05T16:55:25.123Z,4204.3
2022-08-05T17:01:06.960Z,4201.6
2022-08-05T17:06:54.532Z,4203.6
2022-08-05T17:12:55.496Z,4205.3
2022-08-05T17:18:52.450Z,4197
2022-08-05T17:25:01.316Z,4195.9
2022-08-05T17:30:54.945Z,4198.4
2022-08-05T17:36:44.060Z,4193.9
2022-08-05T17:42:46.419Z,4199.4
2022-08-05T17:48:25.756Z,4196.7
2022-08-05T17:54:01.111Z,4196.9
2022-08-05T17:59:43.103Z,4194.9
2022-08-05T18:05:22.183Z,4198.6
2022-08-05T18:10:58.256Z,4199.9
2022-08-05T18:16:56.249Z,4193.4
2022-08-05T18:23:12.383Z,4195.2
2022-08-05T18:28:49.709Z,4192.2
2022-08-05T18:34:43.742Z,4191
2022-08-05T18:42:12.263Z,4192.9
2022-08-05T18:48:00.291Z,4190
2022-08-05T18:53:51.459Z,4190.8
2022-08-05T19:00:29.873Z,4187
2022-08-05T19:06:46.372Z,4188.8
2022-08-05T19:12:21.747Z,4189.7
2022-08-05T19:18:24.636Z,4186.7
2022-08-05T19:24:14.004Z,4187.3
2022-08-05T19:29:51.239Z,4186.8
2022-08-05T19:36:06.081Z,4186.5
2022-08-05T19:42:15.912Z,4183.3
2022-08-05T19:47:56.816Z,4185
2022-08-05T19:54:32.585Z,4182.5
2022-08-05T20:00:13.418Z,4185.7
2022-08-05T20:05:56.869Z,4183.5
2022-08-05T20:11:38.709Z,4185.7
2022-08-05T20:17:37.926Z,4179.6
2022-08-05T20:23:15.990Z,4179.5
2022-08-05T20:28:56.277Z,4182.8
2022-08-05T20:34:32.031Z,4180.6
2022-08-05T20:40:09.486Z,4182.3
2022-08-05T20:46:02.122Z,4179.8
2022-08-05T20:51:40.989Z,4180.1
2022-08-05T20:57:45.793Z,4181.5
2022-08-05T21:03:21.718Z,4180.1
2022-08-05T21:08:56.732Z,4176.8
2022-08-05T21:14:37.240Z,4178.5
2022-08-05T21:20:35.309Z,4178.8
2022-08-05T21:26:16.526Z,4178.1
2022-08-05T21:31:58.318Z,4178.1
2022-08-05T21:37:33.245Z,4177.5
2022-08-05T21:43:26.073Z,4177.5
2022-08-05T21:49:10.063Z,4176.1
2022-08-05T21:56:17.742Z,4175.9
2022-08-05T22:01:56.394Z,4176.1
2022-08-05T22:08:05.206Z,4176.4
2022-08-05T22:14:44.468Z,4174.8
2022-08-05T22:20:26.937Z,4176.8
2022-08-05T22:26:15.836Z,4174.8
2022-08-05T22:32:04.335Z,4174.3
2022-08-05T22:38:00.558Z,4174.6
2022-08-05T22:43:39.503Z,4175.8
2022-08-05T22:50:28.734Z,4174.3
2022-08-05T22:56:13.723Z,4173.1
2022-08-05T23:02:10.124Z,4172.9
2022-08-05T23:07:51.661Z,4171.1
2022-08-05T23:13:26.413Z,4172.3
2022-08-05T23:19:28.613Z,4169.4
2022-08-05T23:25:56.000Z,4174.1
2022-08-05T23:31:35.616Z,4167.6
2022-08-05T23:37:12.536Z,4173.1
2022-08-05T23:42:54.765Z,4171.1
2022-08-05T23:48:29.799Z,4171.6
2022-08-05T23:54:11.764Z,4171.4
